sensor_id;sensor_type;location;lat;lon;timestamp;temperature;humidity
17529;DHT22;8882;53.192;8.184;2023-04-25T04:32:02;5.70;99.90
17529;DHT22;8882;53.192;8.184;2023-04-25T04:34:28;5.70;99.90
17529;DHT22;8882;53.192;8.184;2023-04-25T04:36:54;5.70;99.90
17529;DHT22;8882;53.192;8.184;2023-04-25T04:39:20;5.70;99.90
17529;DHT22;8882;53.192;8.184;2023-04-25T04:41:46;5.70;99.90
17529;DHT22;8882;53.192;8.184;2023-04-25T04:44:12;5.80;99.90
17529;DHT22;8882;53.192;8.184;2023-04-25T04:46:37;5.70;99.90
17529;DHT22;8882;53.192;8.184;2023-04-25T04:49:10;5.70;99.90
17529;DHT22;8882;53.192;8.184;2023-04-25T04:51:37;5.60;99.90
17529;DHT22;8882;53.192;8.184;2023-04-25T04:54:04;5.70;99.90
17529;DHT22;8882;53.192;8.184;2023-04-25T04:56:30;5.60;99.90
17529;DHT22;8882;53.192;8.184;2023-04-25T04:58:59;5.60;99.90
17529;DHT22;8882;53.192;8.184;2023-04-25T05:01:25;5.60;99.90
17529;DHT22;8882;53.192;8.184;2023-04-25T05:03:51;5.60;99.90
17529;DHT22;8882;53.192;8.184;2023-04-25T05:06:18;5.60;99.90
17529;DHT22;8882;53.192;8.184;2023-04-25T05:08:44;5.70;99.90
17529;DHT22;8882;53.192;8.184;2023-04-25T05:11:10;5.70;99.90
17529;DHT22;8882;53.192;8.184;2023-04-25T05:13:35;5.70;99.90
17529;DHT22;8882;53.192;8.184;2023-04-25T05:16:01;5.80;99.90
17529;DHT22;8882;53.192;8.184;2023-04-25T05:18:26;5.90;99.90
17529;DHT22;8882;53.192;8.184;2023-04-25T05:20:52;5.90;99.90
17529;DHT22;8882;53.192;8.184;2023-04-25T05:23:18;6.00;99.90
17529;DHT22;8882;53.192;8.184;2023-04-25T05:25:44;6.20;99.90
17529;DHT22;8882;53.192;8.184;2023-04-25T05:28:12;6.30;99.90
17529;DHT22;8882;53.192;8.184;2023-04-25T05:30:37;6.50;99.90
17529;DHT22;8882;53.192;8.184;2023-04-25T05:33:03;6.60;99.90
17529;DHT22;8882;53.192;8.184;2023-04-25T05:35:28;6.90;99.90
17529;DHT22;8882;53.192;8.184;2023-04-25T05:37:54;7.00;99.90
17529;DHT22;8882;53.192;8.184;2023-04-25T05:40:20;7.20;99.90
17529;DHT22;8882;53.192;8.184;2023-04-25T05:42:45;7.40;99.90
17529;DHT22;8882;53.192;8.184;2023-04-25T05:45:11;7.60;99.90
17529;DHT22;8882;53.192;8.184;2023-04-25T05:47:37;7.90;99.90
17529;DHT22;8882;53.192;8.184;2023-04-25T05:50:02;8.00;99.90
17529;DHT22;8882;53.192;8.184;2023-04-25T05:52:28;8.10;99.90
17529;DHT22;8882;53.192;8.184;2023-04-25T05:54:53;8.10;99.90
17529;DHT22;8882;53.192;8.184;2023-04-25T05:57:26;8.00;99.90
17529;DHT22;8882;53.192;8.184;2023-04-25T05:59:53;7.90;99.90
17529;DHT22;8882;53.192;8.184;2023-04-25T06:02:20;7.70;99.90
17529;DHT22;8882;53.192;8.184;2023-04-25T06:04:47;7.70;99.90
17529;DHT22;8882;53.192;8.184;2023-04-25T06:07:13;7.60;99.90
17529;DHT22;8882;53.192;8.184;2023-04-25T06:09:38;7.60;99.90
17529;DHT22;8882;53.192;8.184;2023-04-25T06:12:05;7.80;76.30
17529;DHT22;8882;53.192;8.184;2023-04-25T06:14:31;7.90;1.00
17529;DHT22;8882;53.192;8.184;2023-04-25T06:16:57;8.20;1.00
17529;DHT22;8882;53.192;8.184;2023-04-25T06:19:22;8.40;1.00
17529;DHT22;8882;53.192;8.184;2023-04-25T06:21:48;8.40;1.00
17529;DHT22;8882;53.192;8.184;2023-04-25T06:24:13;8.60;1.00
17529;DHT22;8882;53.192;8.184;2023-04-25T06:26:39;8.50;1.00
17529;DHT22;8882;53.192;8.184;2023-04-25T06:29:04;8.40;1.00
17529;DHT22;8882;53.192;8.184;2023-04-25T06:31:30;8.40;1.00
17529;DHT22;8882;53.192;8.184;2023-04-25T06:33:58;8.40;1.00
17529;DHT22;8882;53.192;8.184;2023-04-25T06:36:23;8.50;99.90
17529;DHT22;8882;53.192;8.184;2023-04-25T06:38:53;8.60;1.00
17529;DHT22;8882;53.192;8.184;2023-04-25T06:41:20;8.70;1.00
17529;DHT22;8882;53.192;8.184;2023-04-25T06:43:45;8.70;1.00
17529;DHT22;8882;53.192;8.184;2023-04-25T06:46:11;9.00;1.00
17529;DHT22;8882;53.192;8.184;2023-04-25T06:48:37;9.20;1.00
17529;DHT22;8882;53.192;8.184;2023-04-25T06:51:02;9.30;1.00
17529;DHT22;8882;53.192;8.184;2023-04-25T06:53:28;9.40;99.90
17529;DHT22;8882;53.192;8.184;2023-04-25T06:55:54;9.40;1.00
17529;DHT22;8882;53.192;8.184;2023-04-25T06:58:19;9.40;1.00
17529;DHT22;8882;53.192;8.184;2023-04-25T07:00:45;9.70;1.00
17529;DHT22;8882;53.192;8.184;2023-04-25T07:03:10;9.80;1.00
17529;DHT22;8882;53.192;8.184;2023-04-25T07:05:36;10.00;1.00
17529;DHT22;8882;53.192;8.184;2023-04-25T07:08:01;10.10;1.00
17529;DHT22;8882;53.192;8.184;2023-04-25T07:10:28;10.20;1.00
17529;DHT22;8882;53.192;8.184;2023-04-25T07:12:53;9.90;99.90
17529;DHT22;8882;53.192;8.184;2023-04-25T07:15:19;9.90;99.90
17529;DHT22;8882;53.192;8.184;2023-04-25T07:17:44;10.00;99.90
17529;DHT22;8882;53.192;8.184;2023-04-25T07:20:10;10.20;1.00
17529;DHT22;8882;53.192;8.184;2023-04-25T07:22:36;10.20;8.60
17529;DHT22;8882;53.192;8.184;2023-04-25T07:25:01;10.10;1.00
17529;DHT22;8882;53.192;8.184;2023-04-25T07:27:28;10.00;1.00
17529;DHT22;8882;53.192;8.184;2023-04-25T07:29:53;9.80;99.90
17529;DHT22;8882;53.192;8.184;2023-04-25T07:32:19;9.80;1.00
17529;DHT22;8882;53.192;8.184;2023-04-25T07:34:45;9.70;99.90
17529;DHT22;8882;53.192;8.184;2023-04-25T07:37:10;9.40;42.80
17529;DHT22;8882;53.192;8.184;2023-04-25T07:39:36;9.30;1.00
17529;DHT22;8882;53.192;8.184;2023-04-25T07:42:02;9.20;99.90
17529;DHT22;8882;53.192;8.184;2023-04-25T07:44:29;9.00;96.20
17529;DHT22;8882;53.192;8.184;2023-04-25T07:46:56;8.90;1.00
17529;DHT22;8882;53.192;8.184;2023-04-25T07:49:21;8.30;1.00
17529;DHT22;8882;53.192;8.184;2023-04-25T07:51:47;7.80;1.00
17529;DHT22;8882;53.192;8.184;2023-04-25T07:54:14;7.50;1.00
17529;DHT22;8882;53.192;8.184;2023-04-25T07:56:41;7.40;11.50
17529;DHT22;8882;53.192;8.184;2023-04-25T07:59:06;7.40;99.90
17529;DHT22;8882;53.192;8.184;2023-04-25T08:01:34;7.30;69.30
17529;DHT22;8882;53.192;8.184;2023-04-25T08:04:00;7.50;99.90
17529;DHT22;8882;53.192;8.184;2023-04-25T08:06:25;7.60;41.90
17529;DHT22;8882;53.192;8.184;2023-04-25T08:08:51;7.60;60.50
17529;DHT22;8882;53.192;8.184;2023-04-25T08:11:16;7.80;5.40
17529;DHT22;8882;53.192;8.184;2023-04-25T08:13:42;7.80;1.00
17529;DHT22;8882;53.192;8.184;2023-04-25T08:16:07;7.90;1.00
17529;DHT22;8882;53.192;8.184;2023-04-25T08:18:33;8.00;1.00
17529;DHT22;8882;53.192;8.184;2023-04-25T08:20:58;8.10;1.00
17529;DHT22;8882;53.192;8.184;2023-04-25T08:23:24;8.50;1.00
17529;DHT22;8882;53.192;8.184;2023-04-25T08:25:49;8.80;1.00
17529;DHT22;8882;53.192;8.184;2023-04-25T08:28:15;9.00;1.00
17529;DHT22;8882;53.192;8.184;2023-04-25T08:30:41;9.00;1.00
17529;DHT22;8882;53.192;8.184;2023-04-25T08:33:06;9.20;1.00
17529;DHT22;8882;53.192;8.184;2023-04-25T08:35:33;9.00;1.00
17529;DHT22;8882;53.192;8.184;2023-04-25T08:37:58;9.00;49.40
17529;DHT22;8882;53.192;8.184;2023-04-25T08:40:27;8.90;99.90
17529;DHT22;8882;53.192;8.184;2023-04-25T08:42:57;8.80;1.00
17529;DHT22;8882;53.192;8.184;2023-04-25T08:45:23;8.70;1.00
17529;DHT22;8882;53.192;8.184;2023-04-25T08:47:51;8.60;1.00
17529;DHT22;8882;53.192;8.184;2023-04-25T08:50:17;8.50;1.00
17529;DHT22;8882;53.192;8.184;2023-04-25T08:52:45;8.40;1.00
17529;DHT22;8882;53.192;8.184;2023-04-25T08:55:13;8.30;1.00
17529;DHT22;8882;53.192;8.184;2023-04-25T08:57:41;8.20;1.00
17529;DHT22;8882;53.192;8.184;2023-04-25T09:00:09;8.30;1.00
17529;DHT22;8882;53.192;8.184;2023-04-25T09:02:35;8.50;1.00
17529;DHT22;8882;53.192;8.184;2023-04-25T09:05:02;8.70;1.00
17529;DHT22;8882;53.192;8.184;2023-04-25T09:07:29;8.90;1.00
17529;DHT22;8882;53.192;8.184;2023-04-25T09:09:55;9.20;99.90
17529;DHT22;8882;53.192;8.184;2023-04-25T09:12:21;9.30;99.90
17529;DHT22;8882;53.192;8.184;2023-04-25T09:15:07;9.50;1.00
17529;DHT22;8882;53.192;8.184;2023-04-25T09:17:33;9.80;1.00
17529;DHT22;8882;53.192;8.184;2023-04-25T09:20:09;10.00;99.90
17529;DHT22;8882;53.192;8.184;2023-04-25T09:22:36;10.10;99.90
17529;DHT22;8882;53.192;8.184;2023-04-25T09:25:03;10.00;99.90
17529;DHT22;8882;53.192;8.184;2023-04-25T09:27:29;10.00;99.90
17529;DHT22;8882;53.192;8.184;2023-04-25T09:29:59;9.70;1.00
17529;DHT22;8882;53.192;8.184;2023-04-25T09:32:27;9.40;99.90
17529;DHT22;8882;53.192;8.184;2023-04-25T09:34:54;8.80;99.90
17529;DHT22;8882;53.192;8.184;2023-04-25T09:37:26;8.50;99.90
17529;DHT22;8882;53.192;8.184;2023-04-25T09:39:55;8.20;1.00
17529;DHT22;8882;53.192;8.184;2023-04-25T09:42:25;7.80;1.00
17529;DHT22;8882;53.192;8.184;2023-04-25T09:44:53;7.60;89.80
17529;DHT22;8882;53.192;8.184;2023-04-25T09:47:19;7.60;99.90
17529;DHT22;8882;53.192;8.184;2023-04-25T09:49:47;7.50;99.90
17529;DHT22;8882;53.192;8.184;2023-04-25T09:52:17;7.60;99.90
17529;DHT22;8882;53.192;8.184;2023-04-25T09:54:44;7.60;99.90
17529;DHT22;8882;53.192;8.184;2023-04-25T09:57:15;7.60;99.90
17529;DHT22;8882;53.192;8.184;2023-04-25T09:59:46;7.60;99.90
17529;DHT22;8882;53.192;8.184;2023-04-25T10:02:14;7.80;99.90
17529;DHT22;8882;53.192;8.184;2023-04-25T10:04:41;7.90;99.90
17529;DHT22;8882;53.192;8.184;2023-04-25T10:07:08;8.00;99.90
17529;DHT22;8882;53.192;8.184;2023-04-25T10:09:36;8.10;99.90
17529;DHT22;8882;53.192;8.184;2023-04-25T10:12:02;8.30;58.70
17529;DHT22;8882;53.192;8.184;2023-04-25T10:14:30;8.40;32.90
17529;DHT22;8882;53.192;8.184;2023-04-25T10:16:57;8.70;1.00
17529;DHT22;8882;53.192;8.184;2023-04-25T10:19:24;8.90;99.90
17529;DHT22;8882;53.192;8.184;2023-04-25T10:22:08;9.00;99.90
17529;DHT22;8882;53.192;8.184;2023-04-25T10:24:37;9.20;1.00
17529;DHT22;8882;53.192;8.184;2023-04-25T10:27:04;9.30;1.00
17529;DHT22;8882;53.192;8.184;2023-04-25T10:29:30;9.50;1.00
17529;DHT22;8882;53.192;8.184;2023-04-25T10:31:57;9.70;1.00
17529;DHT22;8882;53.192;8.184;2023-04-25T10:34:38;9.90;1.00
17529;DHT22;8882;53.192;8.184;2023-04-25T10:37:05;10.30;25.50
17529;DHT22;8882;53.192;8.184;2023-04-25T10:39:32;10.70;1.00
17529;DHT22;8882;53.192;8.184;2023-04-25T10:41:58;11.10;99.90
17529;DHT22;8882;53.192;8.184;2023-04-25T10:44:30;11.10;99.90
17529;DHT22;8882;53.192;8.184;2023-04-25T10:46:58;10.90;1.00
17529;DHT22;8882;53.192;8.184;2023-04-25T10:49:42;10.80;99.90
17529;DHT22;8882;53.192;8.184;2023-04-25T10:52:19;10.60;99.90
17529;DHT22;8882;53.192;8.184;2023-04-25T10:54:56;10.50;99.90
17529;DHT22;8882;53.192;8.184;2023-04-25T10:57:42;10.50;1.00
17529;DHT22;8882;53.192;8.184;2023-04-25T11:00:19;10.70;1.00
17529;DHT22;8882;53.192;8.184;2023-04-25T11:02:51;10.70;1.00
17529;DHT22;8882;53.192;8.184;2023-04-25T11:05:36;10.70;99.90
17529;DHT22;8882;53.192;8.184;2023-04-25T11:08:03;10.60;1.00
17529;DHT22;8882;53.192;8.184;2023-04-25T11:10:34;10.80;1.00
17529;DHT22;8882;53.192;8.184;2023-04-25T11:13:01;10.60;99.90
17529;DHT22;8882;53.192;8.184;2023-04-25T11:15:27;10.40;99.90
17529;DHT22;8882;53.192;8.184;2023-04-25T11:17:53;10.50;1.00
17529;DHT22;8882;53.192;8.184;2023-04-25T11:20:19;10.70;1.00
17529;DHT22;8882;53.192;8.184;2023-04-25T11:22:45;10.90;1.00
17529;DHT22;8882;53.192;8.184;2023-04-25T11:25:12;11.20;1.00
17529;DHT22;8882;53.192;8.184;2023-04-25T11:27:55;11.20;1.00
17529;DHT22;8882;53.192;8.184;2023-04-25T11:30:23;11.20;1.00
17529;DHT22;8882;53.192;8.184;2023-04-25T11:32:49;10.90;1.00
17529;DHT22;8882;53.192;8.184;2023-04-25T11:35:15;10.50;1.00
17529;DHT22;8882;53.192;8.184;2023-04-25T11:37:44;10.10;1.00
17529;DHT22;8882;53.192;8.184;2023-04-25T11:40:11;10.00;1.00
17529;DHT22;8882;53.192;8.184;2023-04-25T11:42:38;10.00;1.00
17529;DHT22;8882;53.192;8.184;2023-04-25T11:45:05;10.30;1.00
17529;DHT22;8882;53.192;8.184;2023-04-25T11:47:31;10.50;1.00
17529;DHT22;8882;53.192;8.184;2023-04-25T11:50:01;10.80;1.00
17529;DHT22;8882;53.192;8.184;2023-04-25T11:52:37;10.70;1.00
17529;DHT22;8882;53.192;8.184;2023-04-25T11:55:14;10.40;99.90
17529;DHT22;8882;53.192;8.184;2023-04-25T11:57:41;10.40;99.90
17529;DHT22;8882;53.192;8.184;2023-04-25T12:00:12;10.40;99.90
17529;DHT22;8882;53.192;8.184;2023-04-25T12:02:43;10.50;99.90
17529;DHT22;8882;53.192;8.184;2023-04-25T12:05:10;10.90;99.90
17529;DHT22;8882;53.192;8.184;2023-04-25T12:07:36;11.30;1.00
17529;DHT22;8882;53.192;8.184;2023-04-25T12:10:13;11.60;1.00
17529;DHT22;8882;53.192;8.184;2023-04-25T12:12:44;11.80;99.90
17529;DHT22;8882;53.192;8.184;2023-04-25T12:15:17;12.00;1.00
17529;DHT22;8882;53.192;8.184;2023-04-25T12:17:48;12.00;1.00
17529;DHT22;8882;53.192;8.184;2023-04-25T12:20:17;12.20;1.00
17529;DHT22;8882;53.192;8.184;2023-04-25T12:22:45;12.20;1.00
17529;DHT22;8882;53.192;8.184;2023-04-25T12:25:34;12.00;1.00
17529;DHT22;8882;53.192;8.184;2023-04-25T12:28:19;11.80;1.00
17529;DHT22;8882;53.192;8.184;2023-04-25T12:33:25;11.60;1.00
17529;DHT22;8882;53.192;8.184;2023-04-25T12:35:55;11.50;1.00
17529;DHT22;8882;53.192;8.184;2023-04-25T12:38:28;11.60;1.00
17529;DHT22;8882;53.192;8.184;2023-04-25T12:40:56;11.80;1.00
17529;DHT22;8882;53.192;8.184;2023-04-25T12:43:23;12.00;1.00
17529;DHT22;8882;53.192;8.184;2023-04-25T12:45:49;11.80;1.00
17529;DHT22;8882;53.192;8.184;2023-04-25T12:48:18;11.60;1.00
17529;DHT22;8882;53.192;8.184;2023-04-25T12:50:43;11.50;1.00
17529;DHT22;8882;53.192;8.184;2023-04-25T12:53:10;11.50;1.00
17529;DHT22;8882;53.192;8.184;2023-04-25T12:55:36;11.60;1.00
17529;DHT22;8882;53.192;8.184;2023-04-25T12:58:02;11.70;1.00
17529;DHT22;8882;53.192;8.184;2023-04-25T13:00:28;11.60;1.00
17529;DHT22;8882;53.192;8.184;2023-04-25T13:02:54;11.80;1.00
17529;DHT22;8882;53.192;8.184;2023-04-25T13:05:20;11.70;1.00
17529;DHT22;8882;53.192;8.184;2023-04-25T13:07:45;11.60;1.00
17529;DHT22;8882;53.192;8.184;2023-04-25T13:10:11;11.70;1.00
17529;DHT22;8882;53.192;8.184;2023-04-25T13:12:36;11.70;1.00
17529;DHT22;8882;53.192;8.184;2023-04-25T13:15:02;11.70;1.00
17529;DHT22;8882;53.192;8.184;2023-04-25T13:17:27;11.90;1.00
17529;DHT22;8882;53.192;8.184;2023-04-25T13:19:53;12.10;1.00
17529;DHT22;8882;53.192;8.184;2023-04-25T13:22:18;12.10;1.00
17529;DHT22;8882;53.192;8.184;2023-04-25T13:24:45;11.90;1.00
17529;DHT22;8882;53.192;8.184;2023-04-25T13:27:12;12.10;1.00
17529;DHT22;8882;53.192;8.184;2023-04-25T13:29:38;12.30;1.00
17529;DHT22;8882;53.192;8.184;2023-04-25T13:32:06;12.40;1.00
17529;DHT22;8882;53.192;8.184;2023-04-25T13:34:31;12.40;1.00
17529;DHT22;8882;53.192;8.184;2023-04-25T13:36:57;12.10;1.00
17529;DHT22;8882;53.192;8.184;2023-04-25T13:39:23;11.90;1.00
17529;DHT22;8882;53.192;8.184;2023-04-25T13:41:48;11.70;1.00
17529;DHT22;8882;53.192;8.184;2023-04-25T13:44:14;11.50;1.00
17529;DHT22;8882;53.192;8.184;2023-04-25T13:46:39;11.30;1.00
17529;DHT22;8882;53.192;8.184;2023-04-25T13:49:05;11.10;1.00
17529;DHT22;8882;53.192;8.184;2023-04-25T13:51:30;10.90;66.80
17529;DHT22;8882;53.192;8.184;2023-04-25T13:53:56;10.70;99.90
17529;DHT22;8882;53.192;8.184;2023-04-25T13:56:22;10.80;99.90
17529;DHT22;8882;53.192;8.184;2023-04-25T13:58:49;11.00;99.90
17529;DHT22;8882;53.192;8.184;2023-04-25T14:01:15;11.10;1.00
17529;DHT22;8882;53.192;8.184;2023-04-25T14:03:41;11.10;99.90
17529;DHT22;8882;53.192;8.184;2023-04-25T14:06:06;11.30;99.90
17529;DHT22;8882;53.192;8.184;2023-04-25T14:08:33;11.40;1.00
17529;DHT22;8882;53.192;8.184;2023-04-25T14:10:59;11.50;1.00
17529;DHT22;8882;53.192;8.184;2023-04-25T14:13:24;11.60;1.00
17529;DHT22;8882;53.192;8.184;2023-04-25T14:15:50;11.40;1.00
17529;DHT22;8882;53.192;8.184;2023-04-25T14:18:16;11.20;1.00
17529;DHT22;8882;53.192;8.184;2023-04-25T14:20:42;11.00;1.00
17529;DHT22;8882;53.192;8.184;2023-04-25T14:23:07;10.80;1.00
17529;DHT22;8882;53.192;8.184;2023-04-25T14:25:33;10.80;1.00
17529;DHT22;8882;53.192;8.184;2023-04-25T14:27:58;10.60;99.90
17529;DHT22;8882;53.192;8.184;2023-04-25T14:30:24;10.50;1.00
17529;DHT22;8882;53.192;8.184;2023-04-25T14:32:49;10.40;78.00
17529;DHT22;8882;53.192;8.184;2023-04-25T14:35:15;10.50;1.00
17529;DHT22;8882;53.192;8.184;2023-04-25T14:37:41;10.80;99.90
17529;DHT22;8882;53.192;8.184;2023-04-25T14:40:07;11.00;99.90
17529;DHT22;8882;53.192;8.184;2023-04-25T14:42:38;11.00;1.00
17529;DHT22;8882;53.192;8.184;2023-04-25T14:45:05;10.80;99.90
17529;DHT22;8882;53.192;8.184;2023-04-25T14:47:31;10.50;1.00
17529;DHT22;8882;53.192;8.184;2023-04-25T14:49:57;10.40;99.90
17529;DHT22;8882;53.192;8.184;2023-04-25T14:52:23;10.40;99.90
17529;DHT22;8882;53.192;8.184;2023-04-25T14:54:49;10.60;1.00
17529;DHT22;8882;53.192;8.184;2023-04-25T14:57:15;10.50;1.00
17529;DHT22;8882;53.192;8.184;2023-04-25T14:59:41;10.50;1.00
17529;DHT22;8882;53.192;8.184;2023-04-25T15:02:06;10.50;1.00
17529;DHT22;8882;53.192;8.184;2023-04-25T15:04:32;10.40;99.90
17529;DHT22;8882;53.192;8.184;2023-04-25T15:06:58;10.30;99.90
17529;DHT22;8882;53.192;8.184;2023-04-25T15:09:24;10.20;1.00
17529;DHT22;8882;53.192;8.184;2023-04-25T15:11:50;10.10;1.00
17529;DHT22;8882;53.192;8.184;2023-04-25T15:14:17;10.00;1.00
17529;DHT22;8882;53.192;8.184;2023-04-25T15:16:42;10.00;1.00
17529;DHT22;8882;53.192;8.184;2023-04-25T15:19:08;9.80;1.00
17529;DHT22;8882;53.192;8.184;2023-04-25T15:21:34;9.80;1.00
17529;DHT22;8882;53.192;8.184;2023-04-25T15:23:59;9.70;99.90
17529;DHT22;8882;53.192;8.184;2023-04-25T15:26:26;9.80;99.90
17529;DHT22;8882;53.192;8.184;2023-04-25T15:28:51;9.80;99.90
17529;DHT22;8882;53.192;8.184;2023-04-25T15:31:17;9.90;36.10
17529;DHT22;8882;53.192;8.184;2023-04-25T15:33:43;9.80;1.00
17529;DHT22;8882;53.192;8.184;2023-04-25T15:36:09;9.80;1.00
17529;DHT22;8882;53.192;8.184;2023-04-25T15:38:35;9.70;1.00
17529;DHT22;8882;53.192;8.184;2023-04-25T15:41:01;9.70;1.00
17529;DHT22;8882;53.192;8.184;2023-04-25T15:43:26;9.60;1.00
17529;DHT22;8882;53.192;8.184;2023-04-25T15:45:52;9.50;1.00
17529;DHT22;8882;53.192;8.184;2023-04-25T15:48:18;9.30;1.00
17529;DHT22;8882;53.192;8.184;2023-04-25T15:50:43;9.20;99.90
17529;DHT22;8882;53.192;8.184;2023-04-25T15:53:09;9.20;99.90
17529;DHT22;8882;53.192;8.184;2023-04-25T15:55:35;9.10;1.00
17529;DHT22;8882;53.192;8.184;2023-04-25T15:58:01;9.00;1.00
17529;DHT22;8882;53.192;8.184;2023-04-25T16:00:26;8.90;99.90
17529;DHT22;8882;53.192;8.184;2023-04-25T16:02:52;9.00;1.00
17529;DHT22;8882;53.192;8.184;2023-04-25T16:05:18;8.90;99.90
17529;DHT22;8882;53.192;8.184;2023-04-25T16:07:44;8.80;99.90
17529;DHT22;8882;53.192;8.184;2023-04-25T16:10:11;8.70;1.00
17529;DHT22;8882;53.192;8.184;2023-04-25T16:12:38;8.70;1.00
17529;DHT22;8882;53.192;8.184;2023-04-25T16:15:04;8.70;1.00
17529;DHT22;8882;53.192;8.184;2023-04-25T16:17:30;8.90;1.00
17529;DHT22;8882;53.192;8.184;2023-04-25T16:19:57;9.00;1.00
17529;DHT22;8882;53.192;8.184;2023-04-25T16:22:23;9.10;1.00
17529;DHT22;8882;53.192;8.184;2023-04-25T16:24:49;9.10;1.00
17529;DHT22;8882;53.192;8.184;2023-04-25T16:27:15;9.10;1.00
17529;DHT22;8882;53.192;8.184;2023-04-25T16:29:41;9.20;1.00
17529;DHT22;8882;53.192;8.184;2023-04-25T16:32:07;9.20;1.00
17529;DHT22;8882;53.192;8.184;2023-04-25T16:34:32;9.30;99.90
17529;DHT22;8882;53.192;8.184;2023-04-25T16:36:58;9.30;99.90
17529;DHT22;8882;53.192;8.184;2023-04-25T16:39:23;9.30;99.90
17529;DHT22;8882;53.192;8.184;2023-04-25T16:41:49;9.30;99.90
17529;DHT22;8882;53.192;8.184;2023-04-25T16:44:15;9.30;99.90
17529;DHT22;8882;53.192;8.184;2023-04-25T16:46:41;9.30;1.00
17529;DHT22;8882;53.192;8.184;2023-04-25T16:49:07;9.40;1.00
17529;DHT22;8882;53.192;8.184;2023-04-25T16:51:32;9.40;1.00
17529;DHT22;8882;53.192;8.184;2023-04-25T16:53:59;9.30;1.00
17529;DHT22;8882;53.192;8.184;2023-04-25T16:56:24;9.30;1.00
17529;DHT22;8882;53.192;8.184;2023-04-25T16:58:50;9.30;1.00
17529;DHT22;8882;53.192;8.184;2023-04-25T17:01:17;9.30;99.90
17529;DHT22;8882;53.192;8.184;2023-04-25T17:03:44;9.20;1.00
17529;DHT22;8882;53.192;8.184;2023-04-25T17:06:10;9.10;1.00
17529;DHT22;8882;53.192;8.184;2023-04-25T17:08:36;9.00;1.00
17529;DHT22;8882;53.192;8.184;2023-04-25T17:11:02;8.80;33.20
17529;DHT22;8882;53.192;8.184;2023-04-25T17:13:28;8.80;1.00
17529;DHT22;8882;53.192;8.184;2023-04-25T17:15:53;8.80;99.90
17529;DHT22;8882;53.192;8.184;2023-04-25T17:18:19;8.70;99.90
17529;DHT22;8882;53.192;8.184;2023-04-25T17:20:44;8.80;1.00
17529;DHT22;8882;53.192;8.184;2023-04-25T17:23:10;8.80;1.00
17529;DHT22;8882;53.192;8.184;2023-04-25T17:25:37;8.80;1.00
17529;DHT22;8882;53.192;8.184;2023-04-25T17:28:02;8.70;99.60
17529;DHT22;8882;53.192;8.184;2023-04-25T17:30:28;8.60;1.00
17529;DHT22;8882;53.192;8.184;2023-04-25T17:32:54;8.60;1.00
17529;DHT22;8882;53.192;8.184;2023-04-25T17:37:45;8.40;99.90
17529;DHT22;8882;53.192;8.184;2023-04-25T17:40:11;8.40;99.90
17529;DHT22;8882;53.192;8.184;2023-04-25T17:42:38;8.40;99.30
17529;DHT22;8882;53.192;8.184;2023-04-25T17:45:04;8.40;1.00
17529;DHT22;8882;53.192;8.184;2023-04-25T17:47:30;8.30;99.90
17529;DHT22;8882;53.192;8.184;2023-04-25T17:49:56;8.30;99.90
17529;DHT22;8882;53.192;8.184;2023-04-25T17:52:23;8.30;1.00
17529;DHT22;8882;53.192;8.184;2023-04-25T17:54:48;8.30;1.00
17529;DHT22;8882;53.192;8.184;2023-04-25T17:57:14;8.20;1.00
17529;DHT22;8882;53.192;8.184;2023-04-25T17:59:40;8.20;1.00
17529;DHT22;8882;53.192;8.184;2023-04-25T18:02:05;8.10;2.30
17529;DHT22;8882;53.192;8.184;2023-04-25T18:04:31;8.10;1.00
17529;DHT22;8882;53.192;8.184;2023-04-25T18:06:57;8.10;1.00
17529;DHT22;8882;53.192;8.184;2023-04-25T18:09:23;8.00;1.00
17529;DHT22;8882;53.192;8.184;2023-04-25T18:11:52;7.90;95.00
17529;DHT22;8882;53.192;8.184;2023-04-25T18:14:19;7.80;99.90
17529;DHT22;8882;53.192;8.184;2023-04-25T18:16:46;7.70;1.00
17529;DHT22;8882;53.192;8.184;2023-04-25T18:19:13;7.70;99.90
17529;DHT22;8882;53.192;8.184;2023-04-25T18:21:47;7.70;99.90
17529;DHT22;8882;53.192;8.184;2023-04-25T18:24:13;7.70;1.00
17529;DHT22;8882;53.192;8.184;2023-04-25T18:26:41;7.80;1.00
17529;DHT22;8882;53.192;8.184;2023-04-25T18:29:08;7.80;1.00
17529;DHT22;8882;53.192;8.184;2023-04-25T18:31:33;7.80;1.00
17529;DHT22;8882;53.192;8.184;2023-04-25T18:34:00;7.80;1.00
17529;DHT22;8882;53.192;8.184;2023-04-25T18:36:26;7.80;1.00
17529;DHT22;8882;53.192;8.184;2023-04-25T18:38:54;7.80;99.90
17529;DHT22;8882;53.192;8.184;2023-04-25T18:41:21;7.60;99.90
17529;DHT22;8882;53.192;8.184;2023-04-25T18:43:52;7.60;99.90
17529;DHT22;8882;53.192;8.184;2023-04-25T18:46:18;7.60;1.00
17529;DHT22;8882;53.192;8.184;2023-04-25T18:48:53;7.60;1.00
17529;DHT22;8882;53.192;8.184;2023-04-25T18:51:22;7.60;1.00
17529;DHT22;8882;53.192;8.184;2023-04-25T18:53:49;7.60;99.90
17529;DHT22;8882;53.192;8.184;2023-04-25T18:56:14;7.60;1.00
17529;DHT22;8882;53.192;8.184;2023-04-25T18:58:41;7.50;1.00
17529;DHT22;8882;53.192;8.184;2023-04-25T19:01:08;7.50;99.90
17529;DHT22;8882;53.192;8.184;2023-04-25T19:03:34;7.50;99.90
17529;DHT22;8882;53.192;8.184;2023-04-25T19:06:00;7.40;1.00
17529;DHT22;8882;53.192;8.184;2023-04-25T19:08:26;7.30;1.00
17529;DHT22;8882;53.192;8.184;2023-04-25T19:10:52;7.20;1.00
17529;DHT22;8882;53.192;8.184;2023-04-25T19:13:19;7.20;1.00
17529;DHT22;8882;53.192;8.184;2023-04-25T19:15:48;7.20;99.90
17529;DHT22;8882;53.192;8.184;2023-04-25T19:18:14;7.20;1.00
17529;DHT22;8882;53.192;8.184;2023-04-25T19:20:40;7.10;99.90
17529;DHT22;8882;53.192;8.184;2023-04-25T19:23:05;7.10;1.00
17529;DHT22;8882;53.192;8.184;2023-04-25T19:25:33;7.10;53.70
17529;DHT22;8882;53.192;8.184;2023-04-25T19:27:58;7.10;99.90
17529;DHT22;8882;53.192;8.184;2023-04-25T19:30:25;7.10;99.90
17529;DHT22;8882;53.192;8.184;2023-04-25T19:32:51;7.00;1.00
17529;DHT22;8882;53.192;8.184;2023-04-25T19:35:17;7.00;99.90
17529;DHT22;8882;53.192;8.184;2023-04-25T19:37:43;7.00;1.00
17529;DHT22;8882;53.192;8.184;2023-04-25T19:40:12;7.00;1.00
17529;DHT22;8882;53.192;8.184;2023-04-25T19:42:38;6.90;1.00
17529;DHT22;8882;53.192;8.184;2023-04-25T19:45:04;6.90;95.20
17529;DHT22;8882;53.192;8.184;2023-04-25T19:47:30;6.90;1.00
17529;DHT22;8882;53.192;8.184;2023-04-25T19:49:55;6.90;99.90
17529;DHT22;8882;53.192;8.184;2023-04-25T19:52:21;6.90;99.90
17529;DHT22;8882;53.192;8.184;2023-04-25T19:54:46;6.90;1.00
17529;DHT22;8882;53.192;8.184;2023-04-25T19:57:12;6.90;1.00
17529;DHT22;8882;53.192;8.184;2023-04-25T19:59:38;6.90;99.90
17529;DHT22;8882;53.192;8.184;2023-04-25T20:02:05;6.80;99.90
17529;DHT22;8882;53.192;8.184;2023-04-25T20:04:33;6.80;1.00
17529;DHT22;8882;53.192;8.184;2023-04-25T20:07:00;6.80;1.00
17529;DHT22;8882;53.192;8.184;2023-04-25T20:09:25;6.70;1.00
17529;DHT22;8882;53.192;8.184;2023-04-25T20:11:51;6.70;1.00
17529;DHT22;8882;53.192;8.184;2023-04-25T20:14:17;6.60;1.00
17529;DHT22;8882;53.192;8.184;2023-04-25T20:16:42;6.60;99.90
17529;DHT22;8882;53.192;8.184;2023-04-25T20:19:08;6.50;99.90
17529;DHT22;8882;53.192;8.184;2023-04-25T20:21:33;6.50;1.00
17529;DHT22;8882;53.192;8.184;2023-04-25T20:24:00;6.50;1.00
17529;DHT22;8882;53.192;8.184;2023-04-25T20:26:29;6.50;1.00
17529;DHT22;8882;53.192;8.184;2023-04-25T20:28:59;6.50;99.90
17529;DHT22;8882;53.192;8.184;2023-04-25T20:31:24;6.40;1.00
17529;DHT22;8882;53.192;8.184;2023-04-25T20:33:50;6.40;1.00
17529;DHT22;8882;53.192;8.184;2023-04-25T20:36:15;6.30;46.80
17529;DHT22;8882;53.192;8.184;2023-04-25T20:38:41;6.30;99.90
17529;DHT22;8882;53.192;8.184;2023-04-25T20:41:06;6.30;99.90